sensor_id;sensor_type;location;lat;lon;timestamp;temperature;humidity
67192;HTU21D;54120;53.504;49.426;2023-04-06T00:01:56;7.92;78.01
67192;HTU21D;54120;53.504;49.426;2023-04-06T00:04:22;7.87;77.84
67192;HTU21D;54120;53.504;49.426;2023-04-06T00:06:48;7.86;77.34
67192;HTU21D;54120;53.504;49.426;2023-04-06T00:09:15;7.81;77.21
67192;HTU21D;54120;53.504;49.426;2023-04-06T00:11:41;7.74;77.15
67192;HTU21D;54120;53.504;49.426;2023-04-06T00:14:08;7.60;77.24
67192;HTU21D;54120;53.504;49.426;2023-04-06T00:16:34;7.48;78.63
67192;HTU21D;54120;53.504;49.426;2023-04-06T00:19:01;7.41;78.73
67192;HTU21D;54120;53.504;49.426;2023-04-06T00:21:27;7.44;79.62
67192;HTU21D;54120;53.504;49.426;2023-04-06T00:23:54;7.34;79.58
67192;HTU21D;54120;53.504;49.426;2023-04-06T00:26:20;7.31;80.13
67192;HTU21D;54120;53.504;49.426;2023-04-06T00:28:46;7.32;80.32
67192;HTU21D;54120;53.504;49.426;2023-04-06T00:31:13;7.39;80.38
67192;HTU21D;54120;53.504;49.426;2023-04-06T00:33:39;7.35;80.82
67192;HTU21D;54120;53.504;49.426;2023-04-06T00:36:06;7.42;80.49
67192;HTU21D;54120;53.504;49.426;2023-04-06T00:38:33;7.46;80.00
67192;HTU21D;54120;53.504;49.426;2023-04-06T00:40:59;7.49;79.85
67192;HTU21D;54120;53.504;49.426;2023-04-06T00:43:26;7.49;79.76
67192;HTU21D;54120;53.504;49.426;2023-04-06T00:45:53;7.44;79.99
67192;HTU21D;54120;53.504;49.426;2023-04-06T00:48:20;7.40;79.80
67192;HTU21D;54120;53.504;49.426;2023-04-06T00:50:47;7.34;79.94
67192;HTU21D;54120;53.504;49.426;2023-04-06T00:53:13;7.32;79.98
67192;HTU21D;54120;53.504;49.426;2023-04-06T00:55:40;7.28;80.48
67192;HTU21D;54120;53.504;49.426;2023-04-06T00:58:06;7.25;80.32
67192;HTU21D;54120;53.504;49.426;2023-04-06T01:00:33;7.22;80.31
67192;HTU21D;54120;53.504;49.426;2023-04-06T01:03:00;7.22;80.38
67192;HTU21D;54120;53.504;49.426;2023-04-06T01:05:27;7.17;80.56
67192;HTU21D;54120;53.504;49.426;2023-04-06T01:07:53;7.14;80.72
67192;HTU21D;54120;53.504;49.426;2023-04-06T01:10:27;7.17;80.40
67192;HTU21D;54120;53.504;49.426;2023-04-06T01:12:53;7.18;80.40
67192;HTU21D;54120;53.504;49.426;2023-04-06T01:15:20;7.20;80.44
67192;HTU21D;54120;53.504;49.426;2023-04-06T01:17:47;7.17;80.17
67192;HTU21D;54120;53.504;49.426;2023-04-06T01:20:14;7.19;79.70
67192;HTU21D;54120;53.504;49.426;2023-04-06T01:22:40;7.20;79.36
67192;HTU21D;54120;53.504;49.426;2023-04-06T01:25:07;7.19;79.63
67192;HTU21D;54120;53.504;49.426;2023-04-06T01:27:34;7.15;79.33
67192;HTU21D;54120;53.504;49.426;2023-04-06T01:30:01;7.09;79.50
67192;HTU21D;54120;53.504;49.426;2023-04-06T01:32:28;7.03;79.19
67192;HTU21D;54120;53.504;49.426;2023-04-06T01:34:56;6.98;79.56
67192;HTU21D;54120;53.504;49.426;2023-04-06T01:37:22;6.90;79.37
67192;HTU21D;54120;53.504;49.426;2023-04-06T01:39:49;6.81;80.09
67192;HTU21D;54120;53.504;49.426;2023-04-06T01:42:16;6.83;79.50
67192;HTU21D;54120;53.504;49.426;2023-04-06T01:44:42;6.82;79.55
67192;HTU21D;54120;53.504;49.426;2023-04-06T01:47:09;6.74;79.97
67192;HTU21D;54120;53.504;49.426;2023-04-06T01:49:36;6.74;80.05
67192;HTU21D;54120;53.504;49.426;2023-04-06T01:52:02;6.72;80.25
67192;HTU21D;54120;53.504;49.426;2023-04-06T01:54:28;6.72;80.78
67192;HTU21D;54120;53.504;49.426;2023-04-06T01:56:55;6.72;80.81
67192;HTU21D;54120;53.504;49.426;2023-04-06T01:59:21;6.72;80.70
67192;HTU21D;54120;53.504;49.426;2023-04-06T02:01:48;6.74;80.69
67192;HTU21D;54120;53.504;49.426;2023-04-06T02:04:14;6.79;80.31
67192;HTU21D;54120;53.504;49.426;2023-04-06T02:06:41;6.78;80.07
67192;HTU21D;54120;53.504;49.426;2023-04-06T02:09:07;6.75;79.98
67192;HTU21D;54120;53.504;49.426;2023-04-06T02:11:34;6.80;79.81
67192;HTU21D;54120;53.504;49.426;2023-04-06T02:14:01;6.84;79.32
67192;HTU21D;54120;53.504;49.426;2023-04-06T02:16:27;6.89;78.92
67192;HTU21D;54120;53.504;49.426;2023-04-06T02:18:54;6.97;78.30
67192;HTU21D;54120;53.504;49.426;2023-04-06T02:21:20;7.10;77.80
67192;HTU21D;54120;53.504;49.426;2023-04-06T02:23:47;7.20;77.05
67192;HTU21D;54120;53.504;49.426;2023-04-06T02:26:14;7.35;76.44
67192;HTU21D;54120;53.504;49.426;2023-04-06T02:28:40;7.46;75.88
67192;HTU21D;54120;53.504;49.426;2023-04-06T02:31:07;7.54;75.86
67192;HTU21D;54120;53.504;49.426;2023-04-06T02:33:34;7.69;75.06
67192;HTU21D;54120;53.504;49.426;2023-04-06T02:36:01;7.78;74.66
67192;HTU21D;54120;53.504;49.426;2023-04-06T02:38:28;7.98;73.66
67192;HTU21D;54120;53.504;49.426;2023-04-06T02:40:54;8.16;72.75
67192;HTU21D;54120;53.504;49.426;2023-04-06T02:43:21;8.36;71.39
67192;HTU21D;54120;53.504;49.426;2023-04-06T02:45:47;8.51;71.04
67192;HTU21D;54120;53.504;49.426;2023-04-06T02:48:14;8.65;69.94
67192;HTU21D;54120;53.504;49.426;2023-04-06T02:50:40;8.77;68.97
67192;HTU21D;54120;53.504;49.426;2023-04-06T02:53:07;8.87;68.41
67192;HTU21D;54120;53.504;49.426;2023-04-06T02:55:33;9.10;67.75
67192;HTU21D;54120;53.504;49.426;2023-04-06T02:58:01;9.23;67.14
67192;HTU21D;54120;53.504;49.426;2023-04-06T03:00:27;9.34;66.12
67192;HTU21D;54120;53.504;49.426;2023-04-06T03:02:54;9.51;65.93
67192;HTU21D;54120;53.504;49.426;2023-04-06T03:05:21;9.82;64.87
67192;HTU21D;54120;53.504;49.426;2023-04-06T03:07:47;10.10;64.08
67192;HTU21D;54120;53.504;49.426;2023-04-06T03:10:13;10.27;62.45
67192;HTU21D;54120;53.504;49.426;2023-04-06T03:12:40;10.38;62.45
67192;HTU21D;54120;53.504;49.426;2023-04-06T03:15:08;12.14;56.61
67192;HTU21D;54120;53.504;49.426;2023-04-06T03:17:35;14.06;50.87
67192;HTU21D;54120;53.504;49.426;2023-04-06T03:20:01;15.30;45.67
67192;HTU21D;54120;53.504;49.426;2023-04-06T03:22:29;16.33;43.16
67192;HTU21D;54120;53.504;49.426;2023-04-06T03:24:55;16.91;41.91
67192;HTU21D;54120;53.504;49.426;2023-04-06T03:27:23;17.48;39.67
67192;HTU21D;54120;53.504;49.426;2023-04-06T03:29:49;18.25;38.82
67192;HTU21D;54120;53.504;49.426;2023-04-06T03:32:15;18.78;37.22
67192;HTU21D;54120;53.504;49.426;2023-04-06T03:34:42;19.72;35.03
67192;HTU21D;54120;53.504;49.426;2023-04-06T03:37:08;20.14;33.38
67192;HTU21D;54120;53.504;49.426;2023-04-06T03:39:35;19.73;33.86
67192;HTU21D;54120;53.504;49.426;2023-04-06T03:42:01;19.51;34.68
67192;HTU21D;54120;53.504;49.426;2023-04-06T03:44:28;19.41;34.89
67192;HTU21D;54120;53.504;49.426;2023-04-06T03:46:54;19.18;34.57
67192;HTU21D;54120;53.504;49.426;2023-04-06T03:49:21;19.54;34.26
67192;HTU21D;54120;53.504;49.426;2023-04-06T03:51:47;20.07;32.79
67192;HTU21D;54120;53.504;49.426;2023-04-06T03:54:14;20.41;32.08
67192;HTU21D;54120;53.504;49.426;2023-04-06T03:56:40;21.01;31.09
67192;HTU21D;54120;53.504;49.426;2023-04-06T03:59:06;21.38;30.13
67192;HTU21D;54120;53.504;49.426;2023-04-06T04:01:33;21.29;30.67
67192;HTU21D;54120;53.504;49.426;2023-04-06T04:03:59;21.88;30.08
67192;HTU21D;54120;53.504;49.426;2023-04-06T04:06:26;21.65;30.02
67192;HTU21D;54120;53.504;49.426;2023-04-06T04:08:52;21.60;30.34
67192;HTU21D;54120;53.504;49.426;2023-04-06T04:11:19;21.27;30.51
67192;HTU21D;54120;53.504;49.426;2023-04-06T04:13:45;21.42;30.83
67192;HTU21D;54120;53.504;49.426;2023-04-06T04:16:12;22.37;28.03
67192;HTU21D;54120;53.504;49.426;2023-04-06T04:18:38;22.71;28.54
67192;HTU21D;54120;53.504;49.426;2023-04-06T04:21:05;23.20;26.25
67192;HTU21D;54120;53.504;49.426;2023-04-06T04:23:31;22.58;27.53
67192;HTU21D;54120;53.504;49.426;2023-04-06T04:25:57;21.76;28.79
67192;HTU21D;54120;53.504;49.426;2023-04-06T04:28:24;22.01;29.38
67192;HTU21D;54120;53.504;49.426;2023-04-06T04:30:51;22.91;27.23
67192;HTU21D;54120;53.504;49.426;2023-04-06T04:33:17;23.29;26.39
67192;HTU21D;54120;53.504;49.426;2023-04-06T04:35:44;22.48;28.17
67192;HTU21D;54120;53.504;49.426;2023-04-06T04:38:10;22.90;27.20
67192;HTU21D;54120;53.504;49.426;2023-04-06T04:40:37;23.42;26.22
67192;HTU21D;54120;53.504;49.426;2023-04-06T04:43:04;23.29;26.31
67192;HTU21D;54120;53.504;49.426;2023-04-06T04:45:34;22.97;27.14
67192;HTU21D;54120;53.504;49.426;2023-04-06T04:48:01;22.42;28.17
67192;HTU21D;54120;53.504;49.426;2023-04-06T04:50:27;22.46;28.70
67192;HTU21D;54120;53.504;49.426;2023-04-06T04:52:53;22.86;27.85
67192;HTU21D;54120;53.504;49.426;2023-04-06T04:55:20;22.31;28.84
67192;HTU21D;54120;53.504;49.426;2023-04-06T04:57:46;22.79;28.48
67192;HTU21D;54120;53.504;49.426;2023-04-06T05:00:13;24.00;25.75
67192;HTU21D;54120;53.504;49.426;2023-04-06T05:02:39;24.00;26.29
67192;HTU21D;54120;53.504;49.426;2023-04-06T05:05:05;24.79;25.48
67192;HTU21D;54120;53.504;49.426;2023-04-06T05:07:32;25.19;24.20
67192;HTU21D;54120;53.504;49.426;2023-04-06T05:09:59;25.88;23.62
67192;HTU21D;54120;53.504;49.426;2023-04-06T05:12:26;25.88;22.98
67192;HTU21D;54120;53.504;49.426;2023-04-06T05:14:53;24.73;24.85
67192;HTU21D;54120;53.504;49.426;2023-04-06T05:17:20;23.22;27.81
67192;HTU21D;54120;53.504;49.426;2023-04-06T05:19:46;23.86;27.10
67192;HTU21D;54120;53.504;49.426;2023-04-06T05:22:12;23.85;27.14
67192;HTU21D;54120;53.504;49.426;2023-04-06T05:24:41;24.04;27.08
67192;HTU21D;54120;53.504;49.426;2023-04-06T05:27:08;24.14;26.89
67192;HTU21D;54120;53.504;49.426;2023-04-06T05:29:34;24.26;27.00
67192;HTU21D;54120;53.504;49.426;2023-04-06T05:32:01;24.39;25.76
67192;HTU21D;54120;53.504;49.426;2023-04-06T05:34:27;23.38;28.06
67192;HTU21D;54120;53.504;49.426;2023-04-06T05:36:53;22.90;28.58
67192;HTU21D;54120;53.504;49.426;2023-04-06T05:39:19;22.66;29.91
67192;HTU21D;54120;53.504;49.426;2023-04-06T05:41:46;24.08;26.97
67192;HTU21D;54120;53.504;49.426;2023-04-06T05:44:12;24.97;25.45
67192;HTU21D;54120;53.504;49.426;2023-04-06T05:46:38;24.70;25.68
67192;HTU21D;54120;53.504;49.426;2023-04-06T05:49:04;24.41;26.61
67192;HTU21D;54120;53.504;49.426;2023-04-06T05:51:30;23.38;28.47
67192;HTU21D;54120;53.504;49.426;2023-04-06T05:53:56;24.02;28.26
67192;HTU21D;54120;53.504;49.426;2023-04-06T05:56:24;24.38;27.12
67192;HTU21D;54120;53.504;49.426;2023-04-06T05:58:50;23.12;29.59
67192;HTU21D;54120;53.504;49.426;2023-04-06T06:01:17;23.40;29.75
67192;HTU21D;54120;53.504;49.426;2023-04-06T06:03:43;24.70;26.68
67192;HTU21D;54120;53.504;49.426;2023-04-06T06:06:09;24.50;26.86
67192;HTU21D;54120;53.504;49.426;2023-04-06T06:08:35;24.64;27.00
67192;HTU21D;54120;53.504;49.426;2023-04-06T06:11:02;25.42;25.85
67192;HTU21D;54120;53.504;49.426;2023-04-06T06:13:28;25.50;25.60
67192;HTU21D;54120;53.504;49.426;2023-04-06T06:15:54;25.52;26.31
67192;HTU21D;54120;53.504;49.426;2023-04-06T06:18:20;25.61;25.53
67192;HTU21D;54120;53.504;49.426;2023-04-06T06:20:46;25.72;25.66
67192;HTU21D;54120;53.504;49.426;2023-04-06T06:23:13;24.88;27.27
67192;HTU21D;54120;53.504;49.426;2023-04-06T06:25:39;25.62;25.72
67192;HTU21D;54120;53.504;49.426;2023-04-06T06:28:05;25.99;25.23
67192;HTU21D;54120;53.504;49.426;2023-04-06T06:30:31;26.82;24.17
67192;HTU21D;54120;53.504;49.426;2023-04-06T06:32:57;27.44;22.52
67192;HTU21D;54120;53.504;49.426;2023-04-06T06:35:23;26.80;23.52
67192;HTU21D;54120;53.504;49.426;2023-04-06T06:37:50;27.15;23.43
67192;HTU21D;54120;53.504;49.426;2023-04-06T06:40:16;26.93;23.54
67192;HTU21D;54120;53.504;49.426;2023-04-06T06:42:49;26.82;23.44
67192;HTU21D;54120;53.504;49.426;2023-04-06T06:45:15;26.68;23.78
67192;HTU21D;54120;53.504;49.426;2023-04-06T06:47:41;26.86;23.14
67192;HTU21D;54120;53.504;49.426;2023-04-06T06:50:07;27.25;22.46
67192;HTU21D;54120;53.504;49.426;2023-04-06T06:52:34;26.10;23.66
67192;HTU21D;54120;53.504;49.426;2023-04-06T06:55:00;25.75;24.94
67192;HTU21D;54120;53.504;49.426;2023-04-06T06:57:27;26.51;22.75
67192;HTU21D;54120;53.504;49.426;2023-04-06T06:59:53;26.20;22.96
67192;HTU21D;54120;53.504;49.426;2023-04-06T07:02:20;25.30;24.85
67192;HTU21D;54120;53.504;49.426;2023-04-06T07:04:50;25.28;25.01
67192;HTU21D;54120;53.504;49.426;2023-04-06T07:07:16;25.33;24.97
67192;HTU21D;54120;53.504;49.426;2023-04-06T07:09:42;26.60;22.97
67192;HTU21D;54120;53.504;49.426;2023-04-06T07:12:08;26.98;23.00
67192;HTU21D;54120;53.504;49.426;2023-04-06T07:14:34;27.25;22.29
67192;HTU21D;54120;53.504;49.426;2023-04-06T07:17:00;26.84;23.40
67192;HTU21D;54120;53.504;49.426;2023-04-06T07:19:26;27.43;22.83
67192;HTU21D;54120;53.504;49.426;2023-04-06T07:21:52;27.20;23.09
67192;HTU21D;54120;53.504;49.426;2023-04-06T07:24:18;25.91;25.68
67192;HTU21D;54120;53.504;49.426;2023-04-06T07:26:45;25.17;27.30
67192;HTU21D;54120;53.504;49.426;2023-04-06T07:29:12;24.57;27.65
67192;HTU21D;54120;53.504;49.426;2023-04-06T07:31:38;24.05;28.59
67192;HTU21D;54120;53.504;49.426;2023-04-06T07:34:04;23.90;29.93
67192;HTU21D;54120;53.504;49.426;2023-04-06T07:36:30;24.51;28.59
67192;HTU21D;54120;53.504;49.426;2023-04-06T07:38:57;24.62;28.64
67192;HTU21D;54120;53.504;49.426;2023-04-06T07:41:23;24.63;28.32
67192;HTU21D;54120;53.504;49.426;2023-04-06T07:43:49;23.89;29.04
67192;HTU21D;54120;53.504;49.426;2023-04-06T07:46:15;21.79;33.32
67192;HTU21D;54120;53.504;49.426;2023-04-06T07:48:42;19.74;37.89
67192;HTU21D;54120;53.504;49.426;2023-04-06T07:51:08;18.68;41.00
67192;HTU21D;54120;53.504;49.426;2023-04-06T07:53:36;18.32;42.16
67192;HTU21D;54120;53.504;49.426;2023-04-06T07:56:02;18.28;41.48
67192;HTU21D;54120;53.504;49.426;2023-04-06T07:58:28;18.00;42.61
67192;HTU21D;54120;53.504;49.426;2023-04-06T08:00:55;17.84;43.54
67192;HTU21D;54120;53.504;49.426;2023-04-06T08:03:21;18.13;42.85
67192;HTU21D;54120;53.504;49.426;2023-04-06T08:05:51;18.05;42.52
67192;HTU21D;54120;53.504;49.426;2023-04-06T08:08:18;17.82;42.23
67192;HTU21D;54120;53.504;49.426;2023-04-06T08:10:45;17.91;43.23
67192;HTU21D;54120;53.504;49.426;2023-04-06T08:13:11;18.04;41.20
67192;HTU21D;54120;53.504;49.426;2023-04-06T08:15:37;18.35;41.58
67192;HTU21D;54120;53.504;49.426;2023-04-06T08:18:04;18.25;41.39
67192;HTU21D;54120;53.504;49.426;2023-04-06T08:20:30;18.17;41.76
67192;HTU21D;54120;53.504;49.426;2023-04-06T08:22:56;18.20;40.48
67192;HTU21D;54120;53.504;49.426;2023-04-06T08:25:22;18.11;41.17
67192;HTU21D;54120;53.504;49.426;2023-04-06T08:27:48;18.26;40.35
67192;HTU21D;54120;53.504;49.426;2023-04-06T08:30:14;18.52;40.44
67192;HTU21D;54120;53.504;49.426;2023-04-06T08:32:41;18.09;41.81
67192;HTU21D;54120;53.504;49.426;2023-04-06T08:35:08;18.05;39.77
67192;HTU21D;54120;53.504;49.426;2023-04-06T08:37:34;17.98;40.08
67192;HTU21D;54120;53.504;49.426;2023-04-06T08:40:01;18.28;38.36
67192;HTU21D;54120;53.504;49.426;2023-04-06T08:42:32;18.39;37.16
67192;HTU21D;54120;53.504;49.426;2023-04-06T08:44:59;18.23;38.33
67192;HTU21D;54120;53.504;49.426;2023-04-06T08:47:26;17.93;39.17
67192;HTU21D;54120;53.504;49.426;2023-04-06T08:49:53;17.68;39.49
67192;HTU21D;54120;53.504;49.426;2023-04-06T08:52:20;17.78;38.31
67192;HTU21D;54120;53.504;49.426;2023-04-06T08:54:47;17.68;38.62
67192;HTU21D;54120;53.504;49.426;2023-04-06T08:57:13;18.32;37.94
67192;HTU21D;54120;53.504;49.426;2023-04-06T08:59:40;18.22;37.26
67192;HTU21D;54120;53.504;49.426;2023-04-06T09:02:11;17.72;38.43
67192;HTU21D;54120;53.504;49.426;2023-04-06T09:04:39;17.50;38.51
67192;HTU21D;54120;53.504;49.426;2023-04-06T09:07:05;17.62;39.79
67192;HTU21D;54120;53.504;49.426;2023-04-06T09:09:31;18.00;39.81
67192;HTU21D;54120;53.504;49.426;2023-04-06T09:11:57;18.25;39.92
67192;HTU21D;54120;53.504;49.426;2023-04-06T09:14:35;18.10;40.40
67192;HTU21D;54120;53.504;49.426;2023-04-06T09:17:02;18.29;38.46
67192;HTU21D;54120;53.504;49.426;2023-04-06T09:19:29;18.33;38.81
67192;HTU21D;54120;53.504;49.426;2023-04-06T09:22:06;18.58;38.18
67192;HTU21D;54120;53.504;49.426;2023-04-06T09:24:50;18.42;39.04
67192;HTU21D;54120;53.504;49.426;2023-04-06T09:27:16;18.15;39.91
67192;HTU21D;54120;53.504;49.426;2023-04-06T09:29:43;18.15;39.43
67192;HTU21D;54120;53.504;49.426;2023-04-06T09:32:11;18.20;40.03
67192;HTU21D;54120;53.504;49.426;2023-04-06T09:34:40;18.42;39.75
67192;HTU21D;54120;53.504;49.426;2023-04-06T09:37:16;18.34;39.30
67192;HTU21D;54120;53.504;49.426;2023-04-06T09:39:44;18.20;39.56
67192;HTU21D;54120;53.504;49.426;2023-04-06T09:42:23;18.35;39.17
67192;HTU21D;54120;53.504;49.426;2023-04-06T09:44:50;18.53;38.08
67192;HTU21D;54120;53.504;49.426;2023-04-06T09:47:16;18.37;37.62
67192;HTU21D;54120;53.504;49.426;2023-04-06T09:49:44;18.11;39.20
67192;HTU21D;54120;53.504;49.426;2023-04-06T09:52:12;17.99;39.72
67192;HTU21D;54120;53.504;49.426;2023-04-06T09:54:40;18.21;38.31
67192;HTU21D;54120;53.504;49.426;2023-04-06T09:57:25;18.55;37.43
67192;HTU21D;54120;53.504;49.426;2023-04-06T10:00:07;18.99;36.90
67192;HTU21D;54120;53.504;49.426;2023-04-06T10:08:03;18.73;36.63
67192;HTU21D;54120;53.504;49.426;2023-04-06T10:10:31;18.63;37.25
67192;HTU21D;54120;53.504;49.426;2023-04-06T10:12:58;18.30;36.27
67192;HTU21D;54120;53.504;49.426;2023-04-06T10:15:24;18.03;37.01
67192;HTU21D;54120;53.504;49.426;2023-04-06T10:17:51;17.82;37.50
67192;HTU21D;54120;53.504;49.426;2023-04-06T10:20:33;17.98;36.82
67192;HTU21D;54120;53.504;49.426;2023-04-06T10:23:35;18.21;36.73
67192;HTU21D;54120;53.504;49.426;2023-04-06T10:26:02;18.11;35.96
67192;HTU21D;54120;53.504;49.426;2023-04-06T10:28:33;18.25;35.60
67192;HTU21D;54120;53.504;49.426;2023-04-06T10:31:05;18.59;33.43
67192;HTU21D;54120;53.504;49.426;2023-04-06T10:33:32;18.83;31.34
67192;HTU21D;54120;53.504;49.426;2023-04-06T10:36:08;18.80;31.52
67192;HTU21D;54120;53.504;49.426;2023-04-06T10:38:37;18.73;29.98
67192;HTU21D;54120;53.504;49.426;2023-04-06T10:41:08;18.55;30.65
67192;HTU21D;54120;53.504;49.426;2023-04-06T10:43:35;18.27;32.00
67192;HTU21D;54120;53.504;49.426;2023-04-06T10:46:03;18.52;30.64
67192;HTU21D;54120;53.504;49.426;2023-04-06T10:48:40;18.63;31.09
67192;HTU21D;54120;53.504;49.426;2023-04-06T10:51:32;18.68;31.48
67192;HTU21D;54120;53.504;49.426;2023-04-06T10:53:59;18.29;32.41
67192;HTU21D;54120;53.504;49.426;2023-04-06T10:56:29;18.37;33.28
67192;HTU21D;54120;53.504;49.426;2023-04-06T10:58:57;18.56;31.74
67192;HTU21D;54120;53.504;49.426;2023-04-06T11:01:24;18.83;32.42
67192;HTU21D;54120;53.504;49.426;2023-04-06T11:03:54;19.16;33.34
67192;HTU21D;54120;53.504;49.426;2023-04-06T11:06:25;19.43;33.94
67192;HTU21D;54120;53.504;49.426;2023-04-06T11:08:53;19.26;32.19
67192;HTU21D;54120;53.504;49.426;2023-04-06T11:11:21;18.85;33.41
67192;HTU21D;54120;53.504;49.426;2023-04-06T11:13:55;18.91;33.15
67192;HTU21D;54120;53.504;49.426;2023-04-06T11:16:24;18.39;33.73
67192;HTU21D;54120;53.504;49.426;2023-04-06T11:19:00;17.96;34.57
67192;HTU21D;54120;53.504;49.426;2023-04-06T11:24:08;18.08;34.63
67192;HTU21D;54120;53.504;49.426;2023-04-06T11:26:58;17.96;34.47
67192;HTU21D;54120;53.504;49.426;2023-04-06T11:29:28;17.84;34.83
67192;HTU21D;54120;53.504;49.426;2023-04-06T11:32:02;17.75;35.02
67192;HTU21D;54120;53.504;49.426;2023-04-06T11:34:29;18.11;35.86
67192;HTU21D;54120;53.504;49.426;2023-04-06T11:36:59;18.57;33.55
67192;HTU21D;54120;53.504;49.426;2023-04-06T11:39:28;18.78;32.36
67192;HTU21D;54120;53.504;49.426;2023-04-06T11:42:03;18.43;33.87
67192;HTU21D;54120;53.504;49.426;2023-04-06T11:44:33;18.39;34.16
67192;HTU21D;54120;53.504;49.426;2023-04-06T11:47:04;18.23;33.70
67192;HTU21D;54120;53.504;49.426;2023-04-06T11:49:32;18.03;34.73
67192;HTU21D;54120;53.504;49.426;2023-04-06T11:52:00;18.42;34.90
67192;HTU21D;54120;53.504;49.426;2023-04-06T11:54:37;18.68;34.51
67192;HTU21D;54120;53.504;49.426;2023-04-06T11:57:04;18.38;34.79
67192;HTU21D;54120;53.504;49.426;2023-04-06T11:59:34;18.14;35.33
67192;HTU21D;54120;53.504;49.426;2023-04-06T12:02:01;17.92;35.47
67192;HTU21D;54120;53.504;49.426;2023-04-06T12:04:28;17.52;35.77
67192;HTU21D;54120;53.504;49.426;2023-04-06T12:06:54;17.65;35.49
67192;HTU21D;54120;53.504;49.426;2023-04-06T12:09:20;18.11;34.94
67192;HTU21D;54120;53.504;49.426;2023-04-06T12:11:46;18.66;33.27
67192;HTU21D;54120;53.504;49.426;2023-04-06T12:14:13;18.57;33.21
67192;HTU21D;54120;53.504;49.426;2023-04-06T12:16:39;18.70;33.43
67192;HTU21D;54120;53.504;49.426;2023-04-06T12:19:06;18.65;33.48
67192;HTU21D;54120;53.504;49.426;2023-04-06T12:21:34;18.22;34.65
67192;HTU21D;54120;53.504;49.426;2023-04-06T12:24:00;18.05;35.18
67192;HTU21D;54120;53.504;49.426;2023-04-06T12:26:27;18.23;34.62
67192;HTU21D;54120;53.504;49.426;2023-04-06T12:28:53;18.40;34.31
67192;HTU21D;54120;53.504;49.426;2023-04-06T12:31:20;18.41;34.57
67192;HTU21D;54120;53.504;49.426;2023-04-06T12:33:48;18.47;34.05
67192;HTU21D;54120;53.504;49.426;2023-04-06T12:36:16;18.36;34.55
67192;HTU21D;54120;53.504;49.426;2023-04-06T12:38:48;18.14;34.98
67192;HTU21D;54120;53.504;49.426;2023-04-06T12:41:14;18.21;34.59
67192;HTU21D;54120;53.504;49.426;2023-04-06T12:43:41;17.95;35.41
67192;HTU21D;54120;53.504;49.426;2023-04-06T12:46:08;18.10;35.36
67192;HTU21D;54120;53.504;49.426;2023-04-06T12:48:34;17.95;35.74
67192;HTU21D;54120;53.504;49.426;2023-04-06T12:51:02;17.76;36.03
67192;HTU21D;54120;53.504;49.426;2023-04-06T12:53:29;17.62;36.50
67192;HTU21D;54120;53.504;49.426;2023-04-06T12:55:56;17.38;35.90
67192;HTU21D;54120;53.504;49.426;2023-04-06T12:58:24;17.43;37.02
67192;HTU21D;54120;53.504;49.426;2023-04-06T13:00:52;17.51;37.92
67192;HTU21D;54120;53.504;49.426;2023-04-06T13:03:19;17.72;37.56
67192;HTU21D;54120;53.504;49.426;2023-04-06T13:05:47;17.74;38.50
67192;HTU21D;54120;53.504;49.426;2023-04-06T13:08:14;17.81;37.82
67192;HTU21D;54120;53.504;49.426;2023-04-06T13:10:47;17.51;38.40
67192;HTU21D;54120;53.504;49.426;2023-04-06T13:13:17;17.52;38.48
67192;HTU21D;54120;53.504;49.426;2023-04-06T13:15:44;17.47;38.56
67192;HTU21D;54120;53.504;49.426;2023-04-06T13:18:11;17.46;38.28
67192;HTU21D;54120;53.504;49.426;2023-04-06T13:20:37;17.43;39.10
67192;HTU21D;54120;53.504;49.426;2023-04-06T13:23:03;17.58;38.05
67192;HTU21D;54120;53.504;49.426;2023-04-06T13:25:30;17.33;37.98
67192;HTU21D;54120;53.504;49.426;2023-04-06T13:27:56;17.29;37.48
67192;HTU21D;54120;53.504;49.426;2023-04-06T13:30:22;17.16;37.33
67192;HTU21D;54120;53.504;49.426;2023-04-06T13:32:48;17.15;37.43
67192;HTU21D;54120;53.504;49.426;2023-04-06T13:35:15;17.34;36.85
67192;HTU21D;54120;53.504;49.426;2023-04-06T13:37:42;17.16;36.85
67192;HTU21D;54120;53.504;49.426;2023-04-06T13:40:09;17.09;37.20
67192;HTU21D;54120;53.504;49.426;2023-04-06T13:42:35;17.33;37.17
67192;HTU21D;54120;53.504;49.426;2023-04-06T13:45:02;17.39;37.50
67192;HTU21D;54120;53.504;49.426;2023-04-06T13:47:28;17.38;37.69
67192;HTU21D;54120;53.504;49.426;2023-04-06T13:49:54;17.43;38.06
67192;HTU21D;54120;53.504;49.426;2023-04-06T13:52:21;17.41;37.66
67192;HTU21D;54120;53.504;49.426;2023-04-06T13:54:49;17.00;38.20
67192;HTU21D;54120;53.504;49.426;2023-04-06T13:57:16;16.72;39.27
67192;HTU21D;54120;53.504;49.426;2023-04-06T13:59:42;16.54;39.50
67192;HTU21D;54120;53.504;49.426;2023-04-06T14:02:09;16.48;40.13
67192;HTU21D;54120;53.504;49.426;2023-04-06T14:04:36;16.43;40.50
67192;HTU21D;54120;53.504;49.426;2023-04-06T14:07:03;16.43;40.42
67192;HTU21D;54120;53.504;49.426;2023-04-06T14:09:29;16.35;40.74
67192;HTU21D;54120;53.504;49.426;2023-04-06T14:11:56;16.54;40.06
67192;HTU21D;54120;53.504;49.426;2023-04-06T14:14:23;16.59;39.64
67192;HTU21D;54120;53.504;49.426;2023-04-06T14:16:49;16.58;39.30
67192;HTU21D;54120;53.504;49.426;2023-04-06T14:19:16;16.46;39.59
67192;HTU21D;54120;53.504;49.426;2023-04-06T14:21:47;16.31;40.47
67192;HTU21D;54120;53.504;49.426;2023-04-06T14:24:14;16.33;40.14
67192;HTU21D;54120;53.504;49.426;2023-04-06T14:26:41;16.24;40.29
67192;HTU21D;54120;53.504;49.426;2023-04-06T14:29:08;16.41;40.28
67192;HTU21D;54120;53.504;49.426;2023-04-06T14:31:35;16.33;40.15
67192;HTU21D;54120;53.504;49.426;2023-04-06T14:34:02;16.18;40.26
67192;HTU21D;54120;53.504;49.426;2023-04-06T14:36:32;16.16;40.50
67192;HTU21D;54120;53.504;49.426;2023-04-06T14:39:04;16.01;40.93
67192;HTU21D;54120;53.504;49.426;2023-04-06T14:41:32;15.99;40.82
67192;HTU21D;54120;53.504;49.426;2023-04-06T14:43:58;15.88;41.84
67192;HTU21D;54120;53.504;49.426;2023-04-06T14:46:25;15.81;41.02
67192;HTU21D;54120;53.504;49.426;2023-04-06T14:48:56;15.71;41.85
67192;HTU21D;54120;53.504;49.426;2023-04-06T14:51:26;15.69;42.38
67192;HTU21D;54120;53.504;49.426;2023-04-06T14:53:55;15.70;42.74
67192;HTU21D;54120;53.504;49.426;2023-04-06T14:56:23;15.58;43.39
67192;HTU21D;54120;53.504;49.426;2023-04-06T14:58:50;15.44;43.95
67192;HTU21D;54120;53.504;49.426;2023-04-06T15:01:18;15.21;44.31
67192;HTU21D;54120;53.504;49.426;2023-04-06T15:03:45;14.99;45.10
67192;HTU21D;54120;53.504;49.426;2023-04-06T15:06:13;14.78;46.23
67192;HTU21D;54120;53.504;49.426;2023-04-06T15:08:43;14.59;46.38
67192;HTU21D;54120;53.504;49.426;2023-04-06T15:11:10;14.39;47.00
67192;HTU21D;54120;53.504;49.426;2023-04-06T15:13:36;14.26;47.50
67192;HTU21D;54120;53.504;49.426;2023-04-06T15:16:04;14.22;48.23